Pittsburgh, Pennsylvania
Traffic Map
Current Weather Conditions
Pittsburgh, Pennsylvania
Clear
Clear
11°
Feels Like: 11°
Wind Chill: 11° Ceiling: Unl
Heat Index: 11° Visibility: 10mi
Dew Point: Wind: 3mph
Humidity: 83% Direction: 10° (N)
Pressure: 30.18in Gusts: 0mph
Raw Report DataKAGC 190653Z 01003KT 10SM CLR 11/08 A3018 RMK AO2 SLP223 T01110083
Traffic Incident Summary
Active as of:
Severity:
Category:
InformationThere was an issue retrieving the traffic information for this location. Please try a different location or try again shortly.
Advertisements
Track Severe Weather on mobile